sensor_id;sensor_type;location;lat;lon;timestamp;P1;durP1;ratioP1;P2;durP2;ratioP2
22826;SDS011;11580;52.562;13.418;2022-07-05T00:00:17;6.40;;;5.80;;
22826;SDS011;11580;52.562;13.418;2022-07-05T00:02:44;6.40;;;5.87;;
22826;SDS011;11580;52.562;13.418;2022-07-05T00:05:11;7.07;;;6.47;;
22826;SDS011;11580;52.562;13.418;2022-07-05T00:07:39;5.97;;;5.47;;
22826;SDS011;11580;52.562;13.418;2022-07-05T00:10:08;5.80;;;5.20;;
22826;SDS011;11580;52.562;13.418;2022-07-05T00:12:35;6.03;;;5.43;;
22826;SDS011;11580;52.562;13.418;2022-07-05T00:15:03;5.50;;;5.10;;
22826;SDS011;11580;52.562;13.418;2022-07-05T00:17:31;5.93;;;5.33;;
22826;SDS011;11580;52.562;13.418;2022-07-05T00:19:59;6.43;;;5.50;;
22826;SDS011;11580;52.562;13.418;2022-07-05T00:22:26;6.03;;;5.50;;
22826;SDS011;11580;52.562;13.418;2022-07-05T00:24:53;6.13;;;5.63;;
22826;SDS011;11580;52.562;13.418;2022-07-05T00:27:22;8.30;;;6.10;;
22826;SDS011;11580;52.562;13.418;2022-07-05T00:29:49;6.73;;;6.13;;
22826;SDS011;11580;52.562;13.418;2022-07-05T00:32:16;9.97;;;6.13;;
22826;SDS011;11580;52.562;13.418;2022-07-05T00:34:44;6.27;;;5.77;;
22826;SDS011;11580;52.562;13.418;2022-07-05T00:37:11;6.60;;;6.00;;
22826;SDS011;11580;52.562;13.418;2022-07-05T00:39:38;5.97;;;5.37;;
22826;SDS011;11580;52.562;13.418;2022-07-05T00:42:06;5.77;;;5.30;;
22826;SDS011;11580;52.562;13.418;2022-07-05T00:44:36;6.23;;;5.50;;
22826;SDS011;11580;52.562;13.418;2022-07-05T00:47:06;5.37;;;4.97;;
22826;SDS011;11580;52.562;13.418;2022-07-05T00:49:37;5.40;;;4.90;;
22826;SDS011;11580;52.562;13.418;2022-07-05T00:52:06;5.17;;;4.73;;
22826;SDS011;11580;52.562;13.418;2022-07-05T00:54:35;5.47;;;4.97;;
22826;SDS011;11580;52.562;13.418;2022-07-05T00:57:05;5.47;;;5.07;;
22826;SDS011;11580;52.562;13.418;2022-07-05T00:59:33;5.10;;;4.60;;
22826;SDS011;11580;52.562;13.418;2022-07-05T01:02:02;4.63;;;4.27;;
22826;SDS011;11580;52.562;13.418;2022-07-05T01:04:29;4.00;;;3.70;;
22826;SDS011;11580;52.562;13.418;2022-07-05T01:06:57;4.00;;;3.70;;
22826;SDS011;11580;52.562;13.418;2022-07-05T01:09:24;3.73;;;3.43;;
22826;SDS011;11580;52.562;13.418;2022-07-05T01:11:51;3.90;;;3.60;;
22826;SDS011;11580;52.562;13.418;2022-07-05T01:14:20;3.70;;;3.40;;
22826;SDS011;11580;52.562;13.418;2022-07-05T01:16:51;4.23;;;3.63;;
22826;SDS011;11580;52.562;13.418;2022-07-05T01:19:20;3.63;;;3.33;;
22826;SDS011;11580;52.562;13.418;2022-07-05T01:21:49;3.60;;;3.30;;
22826;SDS011;11580;52.562;13.418;2022-07-05T01:24:18;3.50;;;3.20;;
22826;SDS011;11580;52.562;13.418;2022-07-05T01:26:47;3.60;;;3.30;;
22826;SDS011;11580;52.562;13.418;2022-07-05T01:29:16;3.20;;;3.00;;
22826;SDS011;11580;52.562;13.418;2022-07-05T01:31:44;3.40;;;3.10;;
22826;SDS011;11580;52.562;13.418;2022-07-05T01:34:12;3.80;;;3.00;;
22826;SDS011;11580;52.562;13.418;2022-07-05T01:36:39;3.03;;;2.83;;
22826;SDS011;11580;52.562;13.418;2022-07-05T01:39:07;2.93;;;2.73;;
22826;SDS011;11580;52.562;13.418;2022-07-05T01:41:36;2.87;;;2.67;;
22826;SDS011;11580;52.562;13.418;2022-07-05T01:44:03;2.93;;;2.73;;
22826;SDS011;11580;52.562;13.418;2022-07-05T01:46:31;2.73;;;2.53;;
22826;SDS011;11580;52.562;13.418;2022-07-05T01:49:03;2.90;;;2.70;;
22826;SDS011;11580;52.562;13.418;2022-07-05T01:51:37;2.43;;;2.23;;
22826;SDS011;11580;52.562;13.418;2022-07-05T01:54:11;2.53;;;2.33;;
22826;SDS011;11580;52.562;13.418;2022-07-05T01:56:40;2.30;;;2.20;;
22826;SDS011;11580;52.562;13.418;2022-07-05T01:59:07;2.60;;;2.40;;
22826;SDS011;11580;52.562;13.418;2022-07-05T02:01:35;2.60;;;2.40;;
22826;SDS011;11580;52.562;13.418;2022-07-05T02:04:06;2.47;;;2.27;;
22826;SDS011;11580;52.562;13.418;2022-07-05T02:06:36;2.53;;;2.33;;
22826;SDS011;11580;52.562;13.418;2022-07-05T02:09:06;2.40;;;2.20;;
22826;SDS011;11580;52.562;13.418;2022-07-05T02:11:33;3.40;;;2.43;;
22826;SDS011;11580;52.562;13.418;2022-07-05T02:14:03;3.20;;;2.50;;
22826;SDS011;11580;52.562;13.418;2022-07-05T02:16:38;2.97;;;2.77;;
22826;SDS011;11580;52.562;13.418;2022-07-05T02:19:05;2.80;;;2.53;;
22826;SDS011;11580;52.562;13.418;2022-07-05T02:21:36;2.60;;;2.17;;
22826;SDS011;11580;52.562;13.418;2022-07-05T02:24:08;2.87;;;2.50;;
22826;SDS011;11580;52.562;13.418;2022-07-05T02:26:43;3.03;;;2.70;;
22826;SDS011;11580;52.562;13.418;2022-07-05T02:29:13;2.90;;;2.70;;
22826;SDS011;11580;52.562;13.418;2022-07-05T02:31:42;2.60;;;2.40;;
22826;SDS011;11580;52.562;13.418;2022-07-05T02:34:09;3.20;;;2.73;;
22826;SDS011;11580;52.562;13.418;2022-07-05T02:36:37;2.43;;;2.33;;
22826;SDS011;11580;52.562;13.418;2022-07-05T02:39:07;2.60;;;2.40;;
22826;SDS011;11580;52.562;13.418;2022-07-05T02:41:35;2.50;;;2.30;;
22826;SDS011;11580;52.562;13.418;2022-07-05T02:44:02;2.80;;;2.60;;
22826;SDS011;11580;52.562;13.418;2022-07-05T02:46:32;2.83;;;2.60;;
22826;SDS011;11580;52.562;13.418;2022-07-05T02:49:02;2.87;;;2.57;;
22826;SDS011;11580;52.562;13.418;2022-07-05T02:51:32;2.33;;;2.20;;
22826;SDS011;11580;52.562;13.418;2022-07-05T02:54:00;2.30;;;2.20;;
22826;SDS011;11580;52.562;13.418;2022-07-05T02:56:30;2.30;;;2.10;;
22826;SDS011;11580;52.562;13.418;2022-07-05T02:58:58;2.57;;;2.40;;
22826;SDS011;11580;52.562;13.418;2022-07-05T03:01:28;2.40;;;2.30;;
22826;SDS011;11580;52.562;13.418;2022-07-05T03:03:58;2.33;;;2.13;;
22826;SDS011;11580;52.562;13.418;2022-07-05T03:06:26;2.40;;;2.00;;
22826;SDS011;11580;52.562;13.418;2022-07-05T03:08:53;3.07;;;2.80;;
22826;SDS011;11580;52.562;13.418;2022-07-05T03:11:20;2.60;;;2.40;;
22826;SDS011;11580;52.562;13.418;2022-07-05T03:13:48;2.40;;;2.30;;
22826;SDS011;11580;52.562;13.418;2022-07-05T03:16:16;2.30;;;2.20;;
22826;SDS011;11580;52.562;13.418;2022-07-05T03:18:44;2.53;;;2.37;;
22826;SDS011;11580;52.562;13.418;2022-07-05T03:21:13;3.53;;;2.37;;
22826;SDS011;11580;52.562;13.418;2022-07-05T03:23:40;2.40;;;2.20;;
22826;SDS011;11580;52.562;13.418;2022-07-05T03:26:08;2.40;;;2.30;;
22826;SDS011;11580;52.562;13.418;2022-07-05T03:28:35;2.33;;;2.23;;
22826;SDS011;11580;52.562;13.418;2022-07-05T03:31:02;2.07;;;1.97;;
22826;SDS011;11580;52.562;13.418;2022-07-05T03:33:36;2.40;;;2.20;;
22826;SDS011;11580;52.562;13.418;2022-07-05T03:36:06;2.37;;;2.27;;
22826;SDS011;11580;52.562;13.418;2022-07-05T03:38:36;2.17;;;2.07;;
22826;SDS011;11580;52.562;13.418;2022-07-05T03:41:03;2.30;;;2.20;;
22826;SDS011;11580;52.562;13.418;2022-07-05T03:43:30;2.70;;;2.47;;
22826;SDS011;11580;52.562;13.418;2022-07-05T03:45:59;2.50;;;2.30;;
22826;SDS011;11580;52.562;13.418;2022-07-05T03:48:29;2.30;;;2.20;;
22826;SDS011;11580;52.562;13.418;2022-07-05T03:50:56;3.37;;;2.07;;
22826;SDS011;11580;52.562;13.418;2022-07-05T03:53:23;2.27;;;2.07;;
22826;SDS011;11580;52.562;13.418;2022-07-05T03:55:53;3.30;;;2.37;;
22826;SDS011;11580;52.562;13.418;2022-07-05T03:58:21;2.67;;;2.47;;
22826;SDS011;11580;52.562;13.418;2022-07-05T04:00:49;2.87;;;2.60;;
22826;SDS011;11580;52.562;13.418;2022-07-05T04:03:19;3.77;;;2.03;;
22826;SDS011;11580;52.562;13.418;2022-07-05T04:05:49;2.40;;;2.20;;
22826;SDS011;11580;52.562;13.418;2022-07-05T04:08:16;2.37;;;2.17;;
22826;SDS011;11580;52.562;13.418;2022-07-05T04:10:45;2.83;;;2.10;;
22826;SDS011;11580;52.562;13.418;2022-07-05T04:13:17;1.90;;;1.80;;
22826;SDS011;11580;52.562;13.418;2022-07-05T04:15:45;2.20;;;2.10;;
22826;SDS011;11580;52.562;13.418;2022-07-05T04:18:12;1.70;;;1.60;;
22826;SDS011;11580;52.562;13.418;2022-07-05T04:20:41;2.67;;;2.43;;
22826;SDS011;11580;52.562;13.418;2022-07-05T04:23:10;2.10;;;1.80;;
22826;SDS011;11580;52.562;13.418;2022-07-05T04:25:38;2.00;;;1.80;;
22826;SDS011;11580;52.562;13.418;2022-07-05T04:28:18;4.60;;;2.30;;
22826;SDS011;11580;52.562;13.418;2022-07-05T04:30:47;2.00;;;1.90;;
22826;SDS011;11580;52.562;13.418;2022-07-05T04:33:16;1.80;;;1.70;;
22826;SDS011;11580;52.562;13.418;2022-07-05T04:35:47;3.67;;;2.60;;
22826;SDS011;11580;52.562;13.418;2022-07-05T04:38:15;2.83;;;2.20;;
22826;SDS011;11580;52.562;13.418;2022-07-05T04:40:43;1.93;;;1.80;;
22826;SDS011;11580;52.562;13.418;2022-07-05T04:43:10;1.77;;;1.60;;
22826;SDS011;11580;52.562;13.418;2022-07-05T04:45:39;1.80;;;1.63;;
22826;SDS011;11580;52.562;13.418;2022-07-05T04:48:06;1.53;;;1.43;;
22826;SDS011;11580;52.562;13.418;2022-07-05T04:50:37;1.93;;;1.83;;
22826;SDS011;11580;52.562;13.418;2022-07-05T04:53:05;2.03;;;1.93;;
22826;SDS011;11580;52.562;13.418;2022-07-05T04:55:32;2.27;;;2.00;;
22826;SDS011;11580;52.562;13.418;2022-07-05T04:57:59;1.73;;;1.63;;
22826;SDS011;11580;52.562;13.418;2022-07-05T05:00:27;1.90;;;1.67;;
22826;SDS011;11580;52.562;13.418;2022-07-05T05:02:55;1.50;;;1.40;;
22826;SDS011;11580;52.562;13.418;2022-07-05T05:05:23;2.03;;;1.90;;
22826;SDS011;11580;52.562;13.418;2022-07-05T05:07:50;1.97;;;1.50;;
22826;SDS011;11580;52.562;13.418;2022-07-05T05:10:17;2.80;;;1.63;;
22826;SDS011;11580;52.562;13.418;2022-07-05T05:12:44;2.63;;;1.67;;
22826;SDS011;11580;52.562;13.418;2022-07-05T05:15:12;1.93;;;1.83;;
22826;SDS011;11580;52.562;13.418;2022-07-05T05:17:40;2.50;;;1.50;;
22826;SDS011;11580;52.562;13.418;2022-07-05T05:20:11;1.60;;;1.50;;
22826;SDS011;11580;52.562;13.418;2022-07-05T05:22:41;1.67;;;1.57;;
22826;SDS011;11580;52.562;13.418;2022-07-05T05:25:09;2.00;;;1.80;;
22826;SDS011;11580;52.562;13.418;2022-07-05T05:27:40;1.93;;;1.83;;
22826;SDS011;11580;52.562;13.418;2022-07-05T05:30:09;1.97;;;1.80;;
22826;SDS011;11580;52.562;13.418;2022-07-05T05:32:38;2.20;;;1.80;;
22826;SDS011;11580;52.562;13.418;2022-07-05T05:35:06;1.83;;;1.60;;
22826;SDS011;11580;52.562;13.418;2022-07-05T05:37:46;1.40;;;1.30;;
22826;SDS011;11580;52.562;13.418;2022-07-05T05:40:17;1.70;;;1.60;;
22826;SDS011;11580;52.562;13.418;2022-07-05T05:42:45;1.60;;;1.50;;
22826;SDS011;11580;52.562;13.418;2022-07-05T05:45:14;2.43;;;1.50;;
22826;SDS011;11580;52.562;13.418;2022-07-05T05:47:42;1.77;;;1.67;;
22826;SDS011;11580;52.562;13.418;2022-07-05T05:50:11;1.60;;;1.43;;
22826;SDS011;11580;52.562;13.418;2022-07-05T05:52:40;4.30;;;1.50;;
22826;SDS011;11580;52.562;13.418;2022-07-05T05:55:08;2.23;;;1.70;;
22826;SDS011;11580;52.562;13.418;2022-07-05T05:57:36;1.57;;;1.40;;
22826;SDS011;11580;52.562;13.418;2022-07-05T06:00:04;2.63;;;1.40;;
22826;SDS011;11580;52.562;13.418;2022-07-05T06:02:37;3.20;;;1.73;;
22826;SDS011;11580;52.562;13.418;2022-07-05T06:05:05;1.80;;;1.70;;
22826;SDS011;11580;52.562;13.418;2022-07-05T06:07:42;3.83;;;1.73;;
22826;SDS011;11580;52.562;13.418;2022-07-05T06:10:18;2.40;;;1.63;;
22826;SDS011;11580;52.562;13.418;2022-07-05T06:12:47;2.33;;;2.10;;
22826;SDS011;11580;52.562;13.418;2022-07-05T06:15:17;1.80;;;1.70;;
22826;SDS011;11580;52.562;13.418;2022-07-05T06:17:45;1.70;;;1.47;;
22826;SDS011;11580;52.562;13.418;2022-07-05T06:20:14;1.73;;;1.63;;
22826;SDS011;11580;52.562;13.418;2022-07-05T06:22:45;3.83;;;2.00;;
22826;SDS011;11580;52.562;13.418;2022-07-05T06:25:13;2.83;;;1.50;;
22826;SDS011;11580;52.562;13.418;2022-07-05T06:27:42;1.80;;;1.70;;
22826;SDS011;11580;52.562;13.418;2022-07-05T06:30:13;1.73;;;1.60;;
22826;SDS011;11580;52.562;13.418;2022-07-05T06:32:42;1.70;;;1.40;;
22826;SDS011;11580;52.562;13.418;2022-07-05T06:35:10;1.70;;;1.30;;
22826;SDS011;11580;52.562;13.418;2022-07-05T06:37:42;1.40;;;1.30;;
22826;SDS011;11580;52.562;13.418;2022-07-05T06:40:12;2.07;;;1.87;;
22826;SDS011;11580;52.562;13.418;2022-07-05T06:42:44;1.80;;;1.40;;
22826;SDS011;11580;52.562;13.418;2022-07-05T06:45:14;2.07;;;1.70;;
22826;SDS011;11580;52.562;13.418;2022-07-05T06:47:41;2.03;;;1.93;;
22826;SDS011;11580;52.562;13.418;2022-07-05T06:50:09;1.70;;;1.60;;
22826;SDS011;11580;52.562;13.418;2022-07-05T06:52:36;1.93;;;1.73;;
22826;SDS011;11580;52.562;13.418;2022-07-05T06:55:06;1.40;;;1.30;;
22826;SDS011;11580;52.562;13.418;2022-07-05T06:57:34;2.53;;;1.57;;
22826;SDS011;11580;52.562;13.418;2022-07-05T07:00:03;2.00;;;1.50;;
22826;SDS011;11580;52.562;13.418;2022-07-05T07:02:32;1.90;;;1.33;;
22826;SDS011;11580;52.562;13.418;2022-07-05T07:05:00;2.17;;;1.80;;
22826;SDS011;11580;52.562;13.418;2022-07-05T07:07:27;1.87;;;1.77;;
22826;SDS011;11580;52.562;13.418;2022-07-05T07:10:14;2.40;;;1.53;;
22826;SDS011;11580;52.562;13.418;2022-07-05T07:12:41;3.80;;;1.90;;
22826;SDS011;11580;52.562;13.418;2022-07-05T07:15:10;2.73;;;2.13;;
22826;SDS011;11580;52.562;13.418;2022-07-05T07:17:37;1.80;;;1.60;;
22826;SDS011;11580;52.562;13.418;2022-07-05T07:20:05;2.00;;;1.90;;
22826;SDS011;11580;52.562;13.418;2022-07-05T07:22:33;1.83;;;1.37;;
22826;SDS011;11580;52.562;13.418;2022-07-05T07:25:00;3.27;;;2.40;;
22826;SDS011;11580;52.562;13.418;2022-07-05T07:27:28;1.67;;;1.57;;
22826;SDS011;11580;52.562;13.418;2022-07-05T07:29:55;3.47;;;1.60;;
22826;SDS011;11580;52.562;13.418;2022-07-05T07:32:24;1.90;;;1.80;;
22826;SDS011;11580;52.562;13.418;2022-07-05T07:34:51;1.50;;;1.37;;
22826;SDS011;11580;52.562;13.418;2022-07-05T07:37:18;2.13;;;1.60;;
22826;SDS011;11580;52.562;13.418;2022-07-05T07:39:45;1.73;;;1.63;;
22826;SDS011;11580;52.562;13.418;2022-07-05T07:42:13;1.70;;;1.60;;
22826;SDS011;11580;52.562;13.418;2022-07-05T07:44:40;2.53;;;1.93;;
22826;SDS011;11580;52.562;13.418;2022-07-05T07:47:07;1.60;;;1.50;;
22826;SDS011;11580;52.562;13.418;2022-07-05T07:49:36;2.53;;;2.10;;
22826;SDS011;11580;52.562;13.418;2022-07-05T07:52:03;1.90;;;1.57;;
22826;SDS011;11580;52.562;13.418;2022-07-05T07:54:31;2.00;;;1.80;;
22826;SDS011;11580;52.562;13.418;2022-07-05T07:56:58;3.00;;;2.30;;
22826;SDS011;11580;52.562;13.418;2022-07-05T07:59:27;1.80;;;1.70;;
22826;SDS011;11580;52.562;13.418;2022-07-05T08:01:54;2.07;;;1.60;;
22826;SDS011;11580;52.562;13.418;2022-07-05T08:04:21;1.77;;;1.67;;
22826;SDS011;11580;52.562;13.418;2022-07-05T08:06:50;2.57;;;2.37;;
22826;SDS011;11580;52.562;13.418;2022-07-05T08:09:17;2.30;;;2.10;;
22826;SDS011;11580;52.562;13.418;2022-07-05T08:11:45;1.83;;;1.70;;
22826;SDS011;11580;52.562;13.418;2022-07-05T08:14:13;1.77;;;1.67;;
22826;SDS011;11580;52.562;13.418;2022-07-05T08:16:41;2.10;;;1.70;;
22826;SDS011;11580;52.562;13.418;2022-07-05T08:19:10;1.63;;;1.53;;
22826;SDS011;11580;52.562;13.418;2022-07-05T08:21:55;2.10;;;1.67;;
22826;SDS011;11580;52.562;13.418;2022-07-05T08:24:23;2.23;;;2.13;;
22826;SDS011;11580;52.562;13.418;2022-07-05T08:26:50;2.67;;;2.00;;
22826;SDS011;11580;52.562;13.418;2022-07-05T08:29:17;1.90;;;1.70;;
22826;SDS011;11580;52.562;13.418;2022-07-05T08:31:45;2.30;;;1.87;;
22826;SDS011;11580;52.562;13.418;2022-07-05T08:34:15;3.50;;;2.30;;
22826;SDS011;11580;52.562;13.418;2022-07-05T08:36:43;2.27;;;2.10;;
22826;SDS011;11580;52.562;13.418;2022-07-05T08:39:12;2.80;;;1.70;;
22826;SDS011;11580;52.562;13.418;2022-07-05T08:41:41;1.90;;;1.80;;
22826;SDS011;11580;52.562;13.418;2022-07-05T08:44:14;1.60;;;1.50;;
22826;SDS011;11580;52.562;13.418;2022-07-05T08:46:44;2.20;;;2.10;;
22826;SDS011;11580;52.562;13.418;2022-07-05T08:49:15;2.93;;;2.33;;
22826;SDS011;11580;52.562;13.418;2022-07-05T08:51:49;2.87;;;1.93;;
22826;SDS011;11580;52.562;13.418;2022-07-05T08:54:21;2.30;;;2.10;;
22826;SDS011;11580;52.562;13.418;2022-07-05T08:56:50;2.10;;;1.90;;
22826;SDS011;11580;52.562;13.418;2022-07-05T08:59:18;2.13;;;1.80;;
22826;SDS011;11580;52.562;13.418;2022-07-05T09:01:45;2.30;;;2.10;;
22826;SDS011;11580;52.562;13.418;2022-07-05T09:04:16;3.40;;;2.60;;
22826;SDS011;11580;52.562;13.418;2022-07-05T09:06:45;2.10;;;2.00;;
22826;SDS011;11580;52.562;13.418;2022-07-05T09:09:15;2.30;;;2.10;;
22826;SDS011;11580;52.562;13.418;2022-07-05T09:11:46;2.20;;;1.97;;
22826;SDS011;11580;52.562;13.418;2022-07-05T09:14:18;2.13;;;2.03;;
22826;SDS011;11580;52.562;13.418;2022-07-05T09:16:48;1.80;;;1.70;;
22826;SDS011;11580;52.562;13.418;2022-07-05T09:19:16;2.23;;;1.97;;
22826;SDS011;11580;52.562;13.418;2022-07-05T09:21:44;1.80;;;1.70;;
22826;SDS011;11580;52.562;13.418;2022-07-05T09:24:11;2.00;;;1.90;;
22826;SDS011;11580;52.562;13.418;2022-07-05T09:26:42;2.47;;;2.30;;
22826;SDS011;11580;52.562;13.418;2022-07-05T09:29:13;2.07;;;1.90;;
22826;SDS011;11580;52.562;13.418;2022-07-05T09:31:44;2.57;;;2.00;;
22826;SDS011;11580;52.562;13.418;2022-07-05T09:34:15;2.70;;;1.90;;
22826;SDS011;11580;52.562;13.418;2022-07-05T09:36:50;1.70;;;1.60;;
22826;SDS011;11580;52.562;13.418;2022-07-05T09:39:38;3.73;;;1.90;;
22826;SDS011;11580;52.562;13.418;2022-07-05T09:42:17;1.80;;;1.70;;
22826;SDS011;11580;52.562;13.418;2022-07-05T09:44:48;2.20;;;2.00;;
22826;SDS011;11580;52.562;13.418;2022-07-05T09:47:18;2.73;;;2.10;;
22826;SDS011;11580;52.562;13.418;2022-07-05T09:49:47;1.60;;;1.50;;
22826;SDS011;11580;52.562;13.418;2022-07-05T09:52:25;2.00;;;1.80;;
22826;SDS011;11580;52.562;13.418;2022-07-05T09:55:00;1.80;;;1.70;;
22826;SDS011;11580;52.562;13.418;2022-07-05T09:57:32;2.00;;;1.90;;
22826;SDS011;11580;52.562;13.418;2022-07-05T10:00:03;1.70;;;1.60;;
22826;SDS011;11580;52.562;13.418;2022-07-05T10:02:36;2.57;;;2.37;;
22826;SDS011;11580;52.562;13.418;2022-07-05T10:05:08;1.90;;;1.80;;
22826;SDS011;11580;52.562;13.418;2022-07-05T10:07:38;2.30;;;2.10;;
22826;SDS011;11580;52.562;13.418;2022-07-05T10:10:09;2.20;;;2.00;;
22826;SDS011;11580;52.562;13.418;2022-07-05T10:12:42;2.13;;;1.93;;
22826;SDS011;11580;52.562;13.418;2022-07-05T10:15:11;2.53;;;2.10;;
22826;SDS011;11580;52.562;13.418;2022-07-05T10:17:41;2.20;;;2.00;;
22826;SDS011;11580;52.562;13.418;2022-07-05T10:20:16;2.03;;;1.93;;
22826;SDS011;11580;52.562;13.418;2022-07-05T10:22:49;1.97;;;1.60;;
22826;SDS011;11580;52.562;13.418;2022-07-05T10:25:18;2.00;;;1.90;;
22826;SDS011;11580;52.562;13.418;2022-07-05T10:27:49;2.53;;;2.30;;
22826;SDS011;11580;52.562;13.418;2022-07-05T10:30:19;2.20;;;2.10;;
22826;SDS011;11580;52.562;13.418;2022-07-05T10:32:48;2.30;;;2.20;;
22826;SDS011;11580;52.562;13.418;2022-07-05T10:35:16;2.30;;;2.10;;
22826;SDS011;11580;52.562;13.418;2022-07-05T10:37:44;2.50;;;2.30;;
22826;SDS011;11580;52.562;13.418;2022-07-05T10:40:12;2.50;;;2.30;;
22826;SDS011;11580;52.562;13.418;2022-07-05T10:42:42;2.93;;;2.40;;
22826;SDS011;11580;52.562;13.418;2022-07-05T10:45:22;2.47;;;2.27;;
22826;SDS011;11580;52.562;13.418;2022-07-05T10:50:42;2.20;;;2.10;;
22826;SDS011;11580;52.562;13.418;2022-07-05T10:53:11;2.63;;;2.10;;
22826;SDS011;11580;52.562;13.418;2022-07-05T10:55:52;1.87;;;1.60;;
22826;SDS011;11580;52.562;13.418;2022-07-05T10:58:30;2.77;;;2.43;;
22826;SDS011;11580;52.562;13.418;2022-07-05T11:04:10;4.77;;;2.43;;
22826;SDS011;11580;52.562;13.418;2022-07-05T11:06:45;2.80;;;2.60;;
22826;SDS011;11580;52.562;13.418;2022-07-05T11:09:18;2.10;;;2.00;;
22826;SDS011;11580;52.562;13.418;2022-07-05T11:11:48;2.00;;;1.90;;
22826;SDS011;11580;52.562;13.418;2022-07-05T11:14:35;2.03;;;1.70;;
22826;SDS011;11580;52.562;13.418;2022-07-05T11:17:25;2.37;;;2.10;;
22826;SDS011;11580;52.562;13.418;2022-07-05T11:20:05;2.10;;;1.80;;
22826;SDS011;11580;52.562;13.418;2022-07-05T11:22:41;2.80;;;1.80;;
22826;SDS011;11580;52.562;13.418;2022-07-05T11:25:27;1.77;;;1.67;;
22826;SDS011;11580;52.562;13.418;2022-07-05T11:28:00;2.30;;;2.10;;
22826;SDS011;11580;52.562;13.418;2022-07-05T11:33:29;6.00;;;1.80;;
22826;SDS011;11580;52.562;13.418;2022-07-05T11:36:19;2.10;;;1.87;;
22826;SDS011;11580;52.562;13.418;2022-07-05T11:39:10;2.20;;;2.00;;
22826;SDS011;11580;52.562;13.418;2022-07-05T11:41:44;1.70;;;1.60;;
22826;SDS011;11580;52.562;13.418;2022-07-05T11:44:13;1.80;;;1.70;;
22826;SDS011;11580;52.562;13.418;2022-07-05T11:46:41;3.40;;;1.40;;
22826;SDS011;11580;52.562;13.418;2022-07-05T11:49:10;2.10;;;1.90;;
22826;SDS011;11580;52.562;13.418;2022-07-05T11:51:38;2.10;;;2.00;;
22826;SDS011;11580;52.562;13.418;2022-07-05T11:54:07;1.90;;;1.80;;
22826;SDS011;11580;52.562;13.418;2022-07-05T11:56:36;2.90;;;1.60;;
22826;SDS011;11580;52.562;13.418;2022-07-05T11:59:16;1.97;;;1.83;;
22826;SDS011;11580;52.562;13.418;2022-07-05T12:01:44;1.93;;;1.80;;
22826;SDS011;11580;52.562;13.418;2022-07-05T12:04:21;2.00;;;1.77;;
22826;SDS011;11580;52.562;13.418;2022-07-05T12:06:50;3.57;;;1.90;;
22826;SDS011;11580;52.562;13.418;2022-07-05T12:09:21;3.83;;;2.20;;
22826;SDS011;11580;52.562;13.418;2022-07-05T12:11:50;1.90;;;1.80;;
22826;SDS011;11580;52.562;13.418;2022-07-05T12:14:36;1.87;;;1.77;;
22826;SDS011;11580;52.562;13.418;2022-07-05T12:17:10;2.40;;;1.90;;
22826;SDS011;11580;52.562;13.418;2022-07-05T12:19:40;2.10;;;1.97;;
22826;SDS011;11580;52.562;13.418;2022-07-05T12:22:07;1.50;;;1.40;;
22826;SDS011;11580;52.562;13.418;2022-07-05T12:24:34;2.03;;;1.80;;
22826;SDS011;11580;52.562;13.418;2022-07-05T12:27:02;5.57;;;1.90;;
22826;SDS011;11580;52.562;13.418;2022-07-05T12:29:31;1.90;;;1.80;;
22826;SDS011;11580;52.562;13.418;2022-07-05T12:32:00;2.30;;;1.67;;
22826;SDS011;11580;52.562;13.418;2022-07-05T12:34:33;1.90;;;1.80;;
22826;SDS011;11580;52.562;13.418;2022-07-05T12:37:02;2.17;;;1.70;;
22826;SDS011;11580;52.562;13.418;2022-07-05T12:39:31;4.00;;;1.70;;
22826;SDS011;11580;52.562;13.418;2022-07-05T12:41:58;2.17;;;1.60;;
22826;SDS011;11580;52.562;13.418;2022-07-05T12:44:25;1.70;;;1.60;;
22826;SDS011;11580;52.562;13.418;2022-07-05T12:46:52;1.80;;;1.70;;
22826;SDS011;11580;52.562;13.418;2022-07-05T12:49:30;2.10;;;2.00;;
22826;SDS011;11580;52.562;13.418;2022-07-05T12:52:04;2.60;;;2.10;;
22826;SDS011;11580;52.562;13.418;2022-07-05T12:54:32;2.47;;;1.60;;
22826;SDS011;11580;52.562;13.418;2022-07-05T12:57:16;2.90;;;2.20;;
22826;SDS011;11580;52.562;13.418;2022-07-05T13:00:10;1.90;;;1.80;;
22826;SDS011;11580;52.562;13.418;2022-07-05T13:02:45;1.70;;;1.40;;
22826;SDS011;11580;52.562;13.418;2022-07-05T13:05:18;1.80;;;1.70;;
22826;SDS011;11580;52.562;13.418;2022-07-05T13:07:49;1.70;;;1.60;;
22826;SDS011;11580;52.562;13.418;2022-07-05T13:10:18;1.93;;;1.60;;
22826;SDS011;11580;52.562;13.418;2022-07-05T13:12:47;1.97;;;1.87;;
22826;SDS011;11580;52.562;13.418;2022-07-05T13:15:16;1.67;;;1.53;;
22826;SDS011;11580;52.562;13.418;2022-07-05T13:17:44;2.13;;;1.90;;
22826;SDS011;11580;52.562;13.418;2022-07-05T13:20:13;1.87;;;1.77;;
22826;SDS011;11580;52.562;13.418;2022-07-05T13:22:42;2.13;;;2.03;;
22826;SDS011;11580;52.562;13.418;2022-07-05T13:25:11;2.60;;;2.40;;
22826;SDS011;11580;52.562;13.418;2022-07-05T13:27:38;3.00;;;1.87;;
22826;SDS011;11580;52.562;13.418;2022-07-05T13:30:06;2.50;;;1.63;;
22826;SDS011;11580;52.562;13.418;2022-07-05T13:32:35;2.57;;;2.37;;
22826;SDS011;11580;52.562;13.418;2022-07-05T13:35:03;1.70;;;1.60;;
22826;SDS011;11580;52.562;13.418;2022-07-05T13:37:31;1.80;;;1.70;;
22826;SDS011;11580;52.562;13.418;2022-07-05T13:39:58;2.30;;;1.87;;
22826;SDS011;11580;52.562;13.418;2022-07-05T13:42:27;2.30;;;2.10;;
22826;SDS011;11580;52.562;13.418;2022-07-05T13:44:54;1.90;;;1.80;;
22826;SDS011;11580;52.562;13.418;2022-07-05T13:47:21;2.30;;;1.80;;
22826;SDS011;11580;52.562;13.418;2022-07-05T13:49:48;1.80;;;1.70;;
22826;SDS011;11580;52.562;13.418;2022-07-05T13:52:35;1.80;;;1.70;;
22826;SDS011;11580;52.562;13.418;2022-07-05T13:55:03;1.70;;;1.60;;
22826;SDS011;11580;52.562;13.418;2022-07-05T13:57:33;2.43;;;1.80;;
22826;SDS011;11580;52.562;13.418;2022-07-05T14:00:00;2.00;;;1.50;;
22826;SDS011;11580;52.562;13.418;2022-07-05T14:02:30;2.90;;;1.83;;
22826;SDS011;11580;52.562;13.418;2022-07-05T14:04:57;1.80;;;1.60;;
22826;SDS011;11580;52.562;13.418;2022-07-05T14:07:24;1.93;;;1.83;;
22826;SDS011;11580;52.562;13.418;2022-07-05T14:09:51;2.50;;;1.43;;
22826;SDS011;11580;52.562;13.418;2022-07-05T14:12:18;2.77;;;2.20;;
22826;SDS011;11580;52.562;13.418;2022-07-05T14:14:47;2.90;;;1.80;;
22826;SDS011;11580;52.562;13.418;2022-07-05T14:17:14;1.60;;;1.50;;
22826;SDS011;11580;52.562;13.418;2022-07-05T14:19:41;1.50;;;1.40;;
22826;SDS011;11580;52.562;13.418;2022-07-05T14:22:08;1.70;;;1.60;;
22826;SDS011;11580;52.562;13.418;2022-07-05T14:24:36;1.63;;;1.53;;
22826;SDS011;11580;52.562;13.418;2022-07-05T14:27:03;1.80;;;1.70;;
22826;SDS011;11580;52.562;13.418;2022-07-05T14:29:32;1.70;;;1.60;;
22826;SDS011;11580;52.562;13.418;2022-07-05T14:32:01;1.80;;;1.70;;
22826;SDS011;11580;52.562;13.418;2022-07-05T14:34:28;1.87;;;1.77;;
22826;SDS011;11580;52.562;13.418;2022-07-05T14:36:55;2.10;;;2.00;;
22826;SDS011;11580;52.562;13.418;2022-07-05T14:39:24;1.80;;;1.70;;
22826;SDS011;11580;52.562;13.418;2022-07-05T14:41:51;3.37;;;1.70;;
22826;SDS011;11580;52.562;13.418;2022-07-05T14:44:19;1.70;;;1.60;;
22826;SDS011;11580;52.562;13.418;2022-07-05T14:46:47;1.70;;;1.60;;
22826;SDS011;11580;52.562;13.418;2022-07-05T14:49:15;1.90;;;1.80;;
22826;SDS011;11580;52.562;13.418;2022-07-05T14:51:42;2.20;;;2.00;;
22826;SDS011;11580;52.562;13.418;2022-07-05T14:54:09;1.77;;;1.57;;
22826;SDS011;11580;52.562;13.418;2022-07-05T14:56:37;3.77;;;1.97;;